Time;durP1;ratioP1;P1;durP2;ratioP2;P2;SDS_P1;SDS_P2;PMS_P1;PMS_P2;Temp;Humidity;BMP_temperature;BMP_pressure;BME280_temperature;BME280_humidity;BME280_pressure;Samples;Min_cycle;Max_cycle;Signal;HPM_P1;HPM_P2
2022/05/04 00:01:23;;;;;;;9.07;4.55;;;;;;;12.77;50.07;101870.97;5091618;28;20475;-65
2022/05/04 00:03:48;;;;;;;8.38;4.30;;;;;;;12.85;50.04;101870.63;5091402;28;20028;-65
2022/05/04 00:06:13;;;;;;;9.70;4.82;;;;;;;12.75;50.26;101870.38;5090743;28;20028;-65
2022/05/04 00:08:39;;;;;;;9.25;4.60;;;;;;;12.72;50.19;101874.47;5091699;28;20609;-65
2022/05/04 00:11:04;;;;;;;9.48;5.18;;;;;;;12.64;50.41;101872.06;5091479;28;20024;-65
2022/05/04 00:13:31;;;;;;;9.25;5.03;;;;;;;12.64;50.69;101865.66;5090696;28;20039;-65
2022/05/04 00:15:57;;;;;;;10.65;4.85;;;;;;;12.64;50.43;101868.44;5091253;28;20443;-65
2022/05/04 00:18:22;;;;;;;10.65;5.10;;;;;;;12.64;50.53;101866.47;5091452;28;20035;-65
2022/05/04 00:20:48;;;;;;;9.15;4.50;;;;;;;12.70;49.95;101871.09;5091096;28;20032;-65
2022/05/04 00:23:13;;;;;;;12.27;5.53;;;;;;;12.65;50.04;101870.13;5095432;28;20467;-65
2022/05/04 00:25:38;;;;;;;10.43;4.53;;;;;;;12.59;50.61;101876.66;5094601;28;20395;-65
2022/05/04 00:28:04;;;;;;;10.77;4.32;;;;;;;12.64;50.60;101872.06;5095444;28;20078;-64
2022/05/04 00:30:30;;;;;;;12.23;5.40;;;;;;;12.52;50.44;101866.47;5095265;28;20077;-64
2022/05/04 00:32:56;;;;;;;8.63;4.75;;;;;;;12.48;50.83;101870.84;5094531;28;20031;-64
2022/05/04 00:35:21;;;;;;;11.35;4.78;;;;;;;12.50;50.49;101868.69;5095217;28;20036;-65
2022/05/04 00:37:46;;;;;;;12.02;5.28;;;;;;;12.53;50.68;101870.13;5095041;28;20136;-65
2022/05/04 00:40:14;;;;;;;12.30;5.20;;;;;;;12.48;50.65;101870.84;5094464;28;20024;-65
2022/05/04 00:42:40;;;;;;;12.20;5.53;;;;;;;12.48;50.94;101870.00;5095168;28;20419;-64
2022/05/04 00:45:05;;;;;;;14.38;5.80;;;;;;;12.46;51.08;101866.63;5095103;28;20063;-64
2022/05/04 00:47:31;;;;;;;11.57;5.78;;;;;;;12.50;51.45;101871.47;5094278;28;20035;-65
2022/05/04 00:49:57;;;;;;;10.82;5.65;;;;;;;12.48;51.48;101864.44;5094971;28;20180;-65
2022/05/04 00:52:23;;;;;;;15.27;6.05;;;;;;;12.39;51.62;101858.38;5094798;28;20028;-65
2022/05/04 00:54:52;;;;;;;12.32;5.80;;;;;;;12.42;51.62;101866.25;5094328;28;20028;-65
2022/05/04 00:58:54;;;;;;;10.10;5.35;;;;;;;12.45;51.70;101864.91;5094873;28;20032;-65
2022/05/04 01:00:07;;;;;;;14.18;5.78;;;;;;;12.48;51.75;101865.28;5094479;28;20064;-66
2022/05/04 01:02:39;;;;;;;13.70;6.63;;;;;;;12.42;51.68;101859.84;5093944;28;20487;-65
2022/05/04 01:05:09;;;;;;;15.52;6.22;;;;;;;12.42;51.87;101863.47;5094746;28;20478;-65
2022/05/04 01:07:34;;;;;;;14.43;6.30;;;;;;;12.42;51.87;101855.13;5094715;28;20032;-65
2022/05/04 01:10:00;;;;;;;11.85;6.10;;;;;;;12.41;51.90;101858.97;5094015;28;20475;-65
2022/05/04 01:12:25;;;;;;;15.13;6.05;;;;;;;12.43;51.71;101853.19;5094451;28;20036;-65
2022/05/04 01:14:53;;;;;;;9.43;5.85;;;;;;;12.42;51.90;101862.63;5093734;28;20024;-65
2022/05/04 01:17:18;;;;;;;11.07;6.00;;;;;;;12.39;51.91;101855.59;5094390;28;20060;-65
2022/05/04 01:19:44;;;;;;;11.65;5.95;;;;;;;12.40;52.20;101865.63;5094416;28;20117;-65
2022/05/04 01:22:09;;;;;;;11.02;6.20;;;;;;;12.41;52.04;101858.97;5093767;28;20028;-66
2022/05/04 01:24:35;;;;;;;11.80;6.03;;;;;;;12.45;51.80;101859.34;5094417;28;20073;-65
2022/05/04 01:27:00;;;;;;;14.82;5.85;;;;;;;12.40;51.80;101864.78;5094172;28;20393;-64
2022/05/04 01:29:25;;;;;;;9.95;5.65;;;;;;;12.39;51.42;101855.59;5093522;28;20048;-66
2022/05/04 01:31:50;;;;;;;12.77;6.18;;;;;;;12.46;51.88;101861.06;5093601;28;20384;-65
2022/05/04 01:34:17;;;;;;;13.50;5.55;;;;;;;12.44;51.59;101863.22;5094290;28;20032;-65
2022/05/04 01:36:42;;;;;;;11.15;5.75;;;;;;;12.40;51.79;101857.28;5093388;28;20411;-65
2022/05/04 01:39:08;;;;;;;11.85;5.57;;;;;;;12.42;51.95;101855.13;5094030;28;20043;-65
2022/05/04 01:44:17;;;;;;;15.98;6.25;;;;;;;12.38;51.94;101859.47;5093076;28;20051;-65
2022/05/04 01:46:42;;;;;;;8.98;5.20;;;;;;;12.45;51.93;101856.56;5093775;28;20024;-65
2022/05/04 01:49:07;;;;;;;8.73;5.82;;;;;;;12.41;51.56;101860.91;5093942;28;20070;-65
2022/05/04 01:51:32;;;;;;;13.85;6.05;;;;;;;12.41;51.74;101849.78;5093225;28;20078;-65
2022/05/04 01:53:58;;;;;;;14.25;5.82;;;;;;;12.46;51.43;101852.69;5093718;28;20113;-64
2022/05/04 01:56:23;;;;;;;11.90;5.30;;;;;;;12.39;51.97;101858.38;5093775;28;20036;-64
2022/05/04 01:58:48;;;;;;;14.32;5.40;;;;;;;12.36;51.72;101855.22;5092685;28;20085;-64
2022/05/04 02:01:13;;;;;;;13.48;6.13;;;;;;;12.36;51.80;101856.06;5093522;28;20040;-65
2022/05/04 02:03:41;;;;;;;11.30;5.30;;;;;;;12.34;51.74;101852.69;5093776;28;20031;-64
2022/05/04 02:06:07;;;;;;;13.57;5.47;;;;;;;12.36;51.93;101853.28;5092881;28;20028;-64
2022/05/04 02:08:33;;;;;;;11.02;5.90;;;;;;;12.39;51.65;101852.81;5093646;28;20024;-64
2022/05/04 02:10:59;;;;;;;10.52;5.07;;;;;;;12.34;51.93;101852.69;5093477;28;20376;-64
2022/05/04 02:13:25;;;;;;;14.15;5.90;;;;;;;12.31;51.55;101852.31;5092738;28;20028;-64
2022/05/04 02:15:50;;;;;;;12.90;5.22;;;;;;;12.38;51.63;101848.34;5093535;28;20043;-64
2022/05/04 02:18:18;;;;;;;14.27;5.65;;;;;;;12.37;51.73;101854.13;5092694;28;20028;-64
2022/05/04 02:20:43;;;;;;;10.52;5.22;;;;;;;12.25;51.97;101842.97;5093250;28;20391;-65
2022/05/04 02:23:09;;;;;;;11.10;5.40;;;;;;;12.26;51.78;101844.66;5093178;28;20028;-64
2022/05/04 02:25:34;;;;;;;14.48;5.45;;;;;;;12.27;52.03;101850.00;5092476;28;20043;-64
2022/05/04 02:27:59;;;;;;;9.43;5.00;;;;;;;12.25;51.94;101840.19;5093080;28;20039;-64
2022/05/04 02:30:24;;;;;;;11.90;5.57;;;;;;;12.25;51.92;101845.75;5092925;28;20024;-65
2022/05/04 02:32:50;;;;;;;9.40;5.07;;;;;;;12.20;52.00;101843.69;5092496;28;20053;-64
2022/05/04 02:38:00;;;;;;;9.57;5.07;;;;;;;12.21;51.76;101841.75;5093160;28;20092;-64
2022/05/04 02:40:28;;;;;;;9.38;5.07;;;;;;;12.19;52.01;101839.22;5092005;28;20035;-65
2022/05/04 02:42:54;;;;;;;15.68;5.63;;;;;;;12.16;52.20;101841.66;5092718;28;20051;-65
2022/05/04 02:45:20;;;;;;;14.57;5.32;;;;;;;12.18;51.80;101843.09;5092346;28;20024;-64
2022/05/04 02:47:45;;;;;;;11.00;5.50;;;;;;;12.15;52.02;101842.75;5091893;28;20062;-65
2022/05/04 02:50:10;;;;;;;10.13;4.93;;;;;;;12.20;51.92;101835.34;5092695;28;20024;-65
2022/05/04 02:52:36;;;;;;;12.23;5.70;;;;;;;12.19;51.50;101838.38;5092633;28;20028;-65
2022/05/04 02:55:02;;;;;;;11.48;5.22;;;;;;;12.09;51.83;101838.13;5091514;28;20020;-65
2022/05/04 02:57:28;;;;;;;14.82;5.10;;;;;;;12.11;51.91;101833.19;5092547;28;20035;-65
2022/05/04 02:59:53;;;;;;;12.25;5.82;;;;;;;12.10;52.07;101834.25;5092380;28;20040;-65
2022/05/04 03:02:27;;;;;;;13.02;5.43;;;;;;;12.07;51.88;101832.81;5091698;28;20036;-65
2022/05/04 03:04:54;;;;;;;15.25;5.35;;;;;;;12.06;51.94;101838.59;5092491;28;20103;-65
2022/05/04 03:07:20;;;;;;;8.85;5.28;;;;;;;12.07;52.07;101823.59;5091614;28;20023;-65
2022/05/04 03:09:45;;;;;;;13.02;5.38;;;;;;;12.01;52.14;101828.19;5092257;28;20036;-65
2022/05/04 03:12:10;;;;;;;12.02;5.43;;;;;;;11.93;52.20;101829.38;5092453;28;20067;-65
2022/05/04 03:14:36;;;;;;;16.42;5.80;;;;;;;12.04;51.94;101820.19;5091553;28;20044;-65
2022/05/04 03:17:04;;;;;;;15.10;5.47;;;;;;;11.96;51.92;101823.34;5092276;28;20073;-65
2022/05/04 03:19:29;;;;;;;11.98;5.40;;;;;;;12.01;51.86;101822.63;5092107;28;20126;-65
2022/05/04 03:21:55;;;;;;;13.63;5.28;;;;;;;11.92;52.10;101822.13;5091528;28;20221;-65
2022/05/04 03:24:20;;;;;;;14.80;5.68;;;;;;;11.89;52.03;101817.03;5091981;28;20133;-65
2022/05/04 03:26:45;;;;;;;11.77;5.78;;;;;;;11.92;52.09;101818.50;5092148;28;20036;-65
2022/05/04 03:29:11;;;;;;;15.82;5.95;;;;;;;11.87;52.02;101822.00;5091397;28;20044;-65
2022/05/04 03:31:37;;;;;;;14.02;5.43;;;;;;;11.86;52.17;101819.44;5092040;28;20066;-65
2022/05/04 03:34:03;;;;;;;10.70;5.70;;;;;;;11.81;52.39;101820.13;5091972;28;20527;-65
2022/05/04 03:36:28;;;;;;;17.23;5.50;;;;;;;11.79;52.26;101822.31;5091264;28;20035;-65
2022/05/04 03:38:58;;;;;;;11.10;5.63;;;;;;;11.80;52.43;101826.78;5091763;28;20020;-65
2022/05/04 03:41:23;;;;;;;11.68;5.47;;;;;;;11.89;52.44;101825.38;5091893;28;20388;-65
2022/05/04 03:43:49;;;;;;;13.05;5.30;;;;;;;11.82;52.37;101826.53;5091256;28;20020;-65
2022/05/04 03:46:23;;;;;;;10.77;5.18;;;;;;;11.75;52.61;101821.06;5091795;28;20399;-65
2022/05/04 03:48:53;;;;;;;10.10;5.07;;;;;;;11.73;52.62;101815.75;5091658;28;20463;-65
2022/05/04 03:51:20;;;;;;;12.27;5.68;;;;;;;11.77;52.30;101816.97;5090945;28;20028;-65
2022/05/04 03:53:50;;;;;;;13.48;5.60;;;;;;;11.69;52.73;101824.81;5091800;28;20115;-65
2022/05/04 03:56:19;;;;;;;13.60;5.55;;;;;;;11.72;52.45;101819.63;5091736;28;20074;-66
2022/05/04 03:58:44;;;;;;;13.30;5.45;;;;;;;11.65;52.69;101821.66;5090561;28;20082;-65
2022/05/04 04:01:11;;;;;;;14.70;6.00;;;;;;;11.61;52.91;101817.66;5091515;28;20039;-65
2022/05/04 04:03:36;;;;;;;9.45;5.50;;;;;;;11.61;52.65;101820.44;5090799;28;20069;-65
2022/05/04 04:06:02;;;;;;;15.38;5.90;;;;;;;11.54;53.34;101817.72;5091496;28;20028;-65
2022/05/04 04:08:27;;;;;;;13.07;5.85;;;;;;;11.59;53.19;101821.72;5091634;28;20024;-65
2022/05/04 04:10:53;;;;;;;13.98;6.03;;;;;;;11.55;52.79;101822.22;5090903;28;20032;-65
2022/05/04 04:13:19;;;;;;;12.65;6.07;;;;;;;11.52;53.03;101819.91;5091535;28;20102;-65
2022/05/04 04:15:46;;;;;;;12.65;6.18;;;;;;;11.54;52.97;101823.28;5091120;28;20527;-65
2022/05/04 04:18:11;;;;;;;11.43;5.75;;;;;;;11.49;52.93;101814.81;5090687;28;20471;-65
2022/05/04 04:23:21;;;;;;;17.58;6.60;;;;;;;11.49;53.00;101823.16;5091647;28;20043;-64
2022/05/04 04:25:46;;;;;;;13.02;5.72;;;;;;;11.42;53.40;101819.63;5090965;28;20024;-64
2022/05/04 04:28:12;;;;;;;15.20;5.90;;;;;;;11.46;53.45;101814.44;5091200;28;20383;-64
2022/05/04 04:30:38;;;;;;;11.73;6.00;;;;;;;11.51;53.03;101821.00;5091705;28;20026;-65
2022/05/04 04:33:07;;;;;;;8.38;4.78;;;;;;;11.48;53.16;101821.47;5089958;28;20429;-65
2022/05/04 04:35:33;;;;;;;13.90;5.85;;;;;;;11.49;52.91;101823.16;5089629;28;20421;-65
2022/05/04 04:37:59;;;;;;;10.52;5.72;;;;;;;11.47;53.20;101827.25;5086444;28;20103;-65
2022/05/04 04:40:25;;;;;;;15.27;6.18;;;;;;;11.53;52.83;101829.94;5089426;28;20482;-65
2022/05/04 04:42:50;;;;;;;14.40;6.40;;;;;;;11.39;53.36;101833.97;5103143;28;20055;-64
2022/05/04 04:45:17;;;;;;;11.50;6.82;;;;;;;11.44;53.33;101830.53;5103190;28;20060;-65
2022/05/04 04:47:44;;;;;;;11.57;6.30;;;;;;;11.41;53.29;101831.84;5085087;28;20537;-65
2022/05/04 04:50:09;;;;;;;15.25;6.43;;;;;;;11.37;53.29;101830.59;5096841;28;20040;-65
2022/05/04 04:52:35;;;;;;;12.45;6.40;;;;;;;11.39;53.15;101824.78;5090671;28;20032;-65
2022/05/04 04:55:03;;;;;;;18.17;6.63;;;;;;;11.38;53.55;101820.31;5098075;28;20020;-64
2022/05/04 04:57:29;;;;;;;12.27;6.38;;;;;;;11.44;53.28;101831.38;5091382;28;20055;-65
2022/05/04 04:59:54;;;;;;;12.55;6.72;;;;;;;11.39;53.55;101822.84;5106136;28;20051;-65
2022/05/04 05:02:19;;;;;;;15.75;6.47;;;;;;;11.33;53.27;101825.75;5093748;28;20039;-64
2022/05/04 05:04:44;;;;;;;12.93;6.45;;;;;;;11.34;53.35;101833.84;5102335;28;20392;-65
2022/05/04 05:07:10;;;;;;;16.00;7.15;;;;;;;11.28;53.11;101830.09;5099679;28;20099;-63
2022/05/04 05:09:35;;;;;;;13.52;6.80;;;;;;;11.34;53.23;101822.72;5089916;28;20032;-63
2022/05/04 05:12:00;;;;;;;16.50;7.10;;;;;;;11.31;53.49;101831.53;5082424;28;20107;-65
2022/05/04 05:17:12;;;;;;;13.98;7.45;;;;;;;11.26;53.75;101836.94;5094693;28;20106;-64
2022/05/04 05:19:38;;;;;;;15.15;7.25;;;;;;;11.35;53.15;101834.69;5094252;28;20064;-65
2022/05/04 05:22:03;;;;;;;12.77;6.93;;;;;;;11.29;53.29;101833.72;5093686;28;20486;-65
2022/05/04 05:24:28;;;;;;;11.95;6.72;;;;;;;11.28;53.22;101829.25;5094218;28;20043;-65
2022/05/04 05:26:54;;;;;;;18.73;6.97;;;;;;;11.26;53.32;101831.38;5094251;27;20028;-65
2022/05/04 05:29:19;;;;;;;15.57;7.32;;;;;;;11.26;53.41;101836.94;5093413;28;20036;-65
2022/05/04 05:31:45;;;;;;;13.52;6.53;;;;;;;11.25;53.23;101832.47;5094182;28;20475;-65
2022/05/04 05:34:10;;;;;;;13.27;7.05;;;;;;;11.26;53.21;101840.56;5094048;28;20546;-65
2022/05/04 05:36:36;;;;;;;16.52;6.47;;;;;;;11.26;53.40;101834.16;5093514;28;20108;-66
2022/05/04 05:39:01;;;;;;;12.48;6.88;;;;;;;11.27;53.42;101836.72;5093967;28;20361;-65
2022/05/04 05:41:26;;;;;;;16.25;8.32;;;;;;;11.22;53.27;101832.94;5094072;28;20032;-65
2022/05/04 05:43:52;;;;;;;13.30;6.90;;;;;;;11.24;53.58;101828.84;5093230;28;20430;-65
2022/05/04 05:46:17;;;;;;;18.50;6.95;;;;;;;11.33;53.28;101836.88;5094157;28;20036;-65
2022/05/04 05:48:47;;;;;;;14.77;6.85;;;;;;;11.41;52.68;101833.75;5094033;28;20483;-65
2022/05/04 05:51:12;;;;;;;14.52;6.22;;;;;;;11.46;52.86;101837.53;5093382;28;20020;-65
2022/05/04 05:53:37;;;;;;;11.52;6.45;;;;;;;11.54;52.90;101837.19;5094065;28;20482;-65
2022/05/04 05:56:03;;;;;;;11.95;6.60;;;;;;;11.49;53.09;101850.13;5093846;28;20082;-65
2022/05/04 05:58:28;;;;;;;13.40;6.40;;;;;;;11.47;53.17;101846.72;5093122;28;20471;-65
2022/05/04 06:00:53;;;;;;;11.95;5.88;;;;;;;11.55;52.84;101841.69;5093817;28;20106;-65
2022/05/04 06:03:19;;;;;;;10.95;5.70;;;;;;;11.61;52.44;101839.03;5093108;28;20044;-65
2022/05/04 06:05:44;;;;;;;12.82;6.20;;;;;;;11.66;52.38;101844.72;5093726;28;20024;-64
2022/05/04 06:08:10;;;;;;;11.20;6.60;;;;;;;11.72;52.35;101844.66;5093704;28;20031;-64
2022/05/04 06:10:37;;;;;;;14.48;6.60;;;;;;;11.79;52.48;101858.47;5092804;28;20032;-65
2022/05/04 06:13:02;;;;;;;17.73;6.40;;;;;;;11.94;52.18;101847.75;5093419;28;20464;-64
2022/05/04 06:15:27;;;;;;;12.57;6.00;;;;;;;12.03;51.98;101851.91;5093684;28;20153;-64
2022/05/04 06:17:53;;;;;;;17.10;6.20;;;;;;;12.09;51.98;101861.22;5092828;28;20024;-64
2022/05/04 06:20:18;;;;;;;16.85;6.63;;;;;;;12.13;52.03;101861.59;5093449;28;20032;-65
2022/05/04 06:22:44;;;;;;;12.45;6.40;;;;;;;12.17;51.11;101852.53;5093483;28;20036;-65
2022/05/04 06:25:09;;;;;;;14.35;6.72;;;;;;;12.26;50.96;101866.94;5092582;28;20042;-64
2022/05/04 06:27:34;;;;;;;10.50;6.15;;;;;;;12.35;50.40;101857.16;5093155;28;20039;-64
2022/05/04 06:35:30;;;;;;;14.75;6.18;;;;;;;12.49;50.42;101855.81;5093463;28;20055;-64
2022/05/04 06:37:59;;;;;;;14.32;6.43;;;;;;;12.56;50.40;101852.09;5093058;27;20027;-65
2022/05/04 06:40:27;;;;;;;17.35;6.43;;;;;;;12.61;50.07;101852.19;5092465;28;20028;-64
2022/05/04 06:42:52;;;;;;;14.43;6.47;;;;;;;12.59;49.79;101863.59;5093162;28;20056;-64
2022/05/04 06:45:17;;;;;;;13.30;6.53;;;;;;;12.63;49.90;101862.00;5092876;28;20063;-64
2022/05/04 06:47:43;;;;;;;12.45;6.70;;;;;;;12.57;49.56;101862.13;5092346;28;20028;-64
2022/05/04 06:50:11;;;;;;;13.20;6.07;;;;;;;12.65;49.52;101870.13;5093191;28;20039;-64
2022/05/04 06:52:42;;;;;;;14.02;6.68;;;;;;;12.63;49.87;101866.75;5092143;28;20387;-64
2022/05/04 06:55:09;;;;;;;16.42;6.50;;;;;;;12.61;49.84;101861.41;5093171;28;20032;-64
2022/05/04 06:57:35;;;;;;;16.63;6.40;;;;;;;12.63;50.31;101863.97;5092966;28;20077;-65
2022/05/04 07:00:05;;;;;;;12.25;6.28;;;;;;;12.66;49.70;101867.09;5091807;28;20044;-65
2022/05/04 07:02:33;;;;;;;15.63;6.45;;;;;;;12.65;49.09;101864.53;5092846;28;20032;-64
2022/05/04 07:04:58;;;;;;;12.10;5.25;;;;;;;12.75;48.96;101859.22;5092666;28;20403;-65
2022/05/04 07:07:23;;;;;;;12.35;5.47;;;;;;;12.82;49.13;101854.38;5091985;28;20035;-65
2022/05/04 07:09:49;;;;;;;12.18;5.72;;;;;;;12.93;48.30;101858.22;5092715;28;20027;-65
2022/05/04 07:12:14;;;;;;;11.68;5.40;;;;;;;13.02;48.24;101865.97;5092639;28;20036;-65
2022/05/04 07:14:42;;;;;;;11.35;5.55;;;;;;;13.09;47.96;101857.50;5091827;28;20032;-65
2022/05/04 07:17:08;;;;;;;13.27;5.80;;;;;;;13.16;48.14;101855.38;5092547;28;20039;-65
2022/05/04 07:19:33;;;;;;;13.85;5.97;;;;;;;13.27;47.58;101862.06;5092385;28;20020;-65
2022/05/04 07:21:59;;;;;;;14.43;5.47;;;;;;;13.36;46.83;101859.75;5091617;28;20024;-65
2022/05/04 07:24:24;;;;;;;12.15;5.78;;;;;;;13.38;47.13;101847.25;5092251;28;20047;-65
2022/05/04 07:26:49;;;;;;;10.13;6.05;;;;;;;13.50;47.16;101856.41;5092220;28;20130;-65
2022/05/04 07:29:14;;;;;;;15.90;5.60;;;;;;;13.53;46.35;101848.66;5091347;28;20099;-65
2022/05/04 07:31:41;;;;;;;11.98;5.15;;;;;;;13.66;46.42;101849.19;5092032;28;20510;-64
2022/05/04 07:34:07;;;;;;;11.60;5.88;;;;;;;13.69;46.29;101854.28;5092139;28;20483;-64
2022/05/04 07:36:32;;;;;;;16.10;6.45;;;;;;;13.81;46.03;101853.38;5091191;28;20036;-64
2022/05/04 07:39:00;;;;;;;16.48;5.72;;;;;;;13.90;45.67;101854.66;5091974;28;20024;-64
2022/05/04 07:44:10;;;;;;;16.85;6.30;;;;;;;14.00;45.88;101850.13;5091939;28;20544;-64
2022/05/04 07:46:35;;;;;;;15.77;6.22;;;;;;;14.17;45.19;101860.44;5091923;28;20024;-64
2022/05/04 07:49:01;;;;;;;13.63;6.80;;;;;;;14.24;45.26;101861.13;5091073;28;20490;-64
2022/05/04 07:51:27;;;;;;;13.13;6.82;;;;;;;14.30;44.92;101868.50;5091909;28;20154;-64
2022/05/04 07:53:52;;;;;;;13.52;6.60;;;;;;;14.37;44.99;101854.38;5091911;28;20387;-64
2022/05/04 07:56:17;;;;;;;12.48;6.43;;;;;;;14.47;45.07;101860.13;5091038;28;20023;-65
2022/05/04 07:58:42;;;;;;;13.65;6.75;;;;;;;14.53;44.53;101858.28;5091818;28;20020;-65
2022/05/04 08:06:36;;;;;;;10.50;6.07;;;;;;;14.89;44.80;101860.50;5091971;28;20067;-65
2022/05/04 08:09:01;;;;;;;13.10;6.85;;;;;;;14.97;43.96;101860.09;5091732;28;20435;-65
2022/05/04 08:11:26;;;;;;;14.10;6.55;;;;;;;15.08;44.13;101854.63;5090899;28;20036;-65
2022/05/04 08:13:51;;;;;;;15.85;7.05;;;;;;;15.13;43.76;101855.56;5091383;28;20036;-65
2022/05/04 08:16:17;;;;;;;10.93;6.88;;;;;;;15.24;43.69;101850.91;5091670;28;20024;-64
2022/05/04 08:18:42;;;;;;;11.05;6.97;;;;;;;15.29;43.27;101862.19;5090635;28;20459;-65
2022/05/04 08:21:11;;;;;;;11.95;6.82;;;;;;;15.30;42.53;101858.28;5091487;28;20039;-65
2022/05/04 08:23:36;;;;;;;13.63;6.45;;;;;;;15.40;42.95;101849.16;5091309;28;20467;-65
2022/05/04 08:26:02;;;;;;;14.50;7.30;;;;;;;15.51;42.73;101852.94;5090656;28;20021;-65
2022/05/04 08:28:28;;;;;;;13.02;7.03;;;;;;;15.50;42.63;101860.47;5090729;28;20038;-65
2022/05/04 08:30:54;;;;;;;11.40;6.95;;;;;;;15.64;42.36;101858.97;5090180;28;20448;-65
2022/05/04 08:33:19;;;;;;;20.00;7.88;;;;;;;15.77;42.54;101859.69;5091380;28;20527;-65
2022/05/04 08:35:45;;;;;;;13.43;7.38;;;;;;;15.76;42.22;101855.19;5091201;28;20040;-65
2022/05/04 08:38:16;;;;;;;13.57;7.60;;;;;;;15.75;42.34;101854.34;5090512;28;20815;-65
2022/05/04 08:40:42;;;;;;;12.43;7.28;;;;;;;15.82;42.23;101857.78;5091125;28;20382;-65
2022/05/04 08:43:08;;;;;;;12.80;6.78;;;;;;;15.86;42.50;101863.69;5093979;28;20024;-65
2022/05/04 08:45:39;;;;;;;9.23;6.60;;;;;;;15.94;42.30;101869.66;5094533;28;20170;-65
2022/05/04 08:48:07;;;;;;;12.00;6.77;;;;;;;16.04;42.16;101865.31;5095204;28;20032;-65
2022/05/04 08:50:33;;;;;;;14.18;7.68;;;;;;;16.08;42.02;101861.69;5094916;28;20020;-65
2022/05/04 08:53:00;;;;;;;14.30;7.57;;;;;;;16.19;41.83;101854.22;5094290;28;20284;-65
2022/05/04 08:55:25;;;;;;;14.45;8.00;;;;;;;16.17;41.74;101845.25;5094997;28;20086;-65
2022/05/04 08:57:52;;;;;;;16.77;7.70;;;;;;;16.28;41.77;101841.44;5094809;28;20487;-65
2022/05/04 09:00:17;;;;;;;11.18;6.70;;;;;;;16.35;41.50;101853.25;5093966;28;20109;-65
2022/05/04 09:02:43;;;;;;;13.05;7.80;;;;;;;16.31;41.38;101854.03;5094390;28;20135;-65
2022/05/04 09:05:26;;;;;;;12.10;7.65;;;;;;;16.30;41.94;101850.38;5094436;28;20039;-65
2022/05/04 09:07:53;;;;;;;11.35;7.57;;;;;;;16.40;41.36;101849.66;5093951;28;20028;-65
2022/05/04 09:10:34;;;;;;;13.13;7.72;;;;;;;16.51;41.63;101854.22;5094796;28;20119;-65
2022/05/04 09:13:00;;;;;;;14.68;7.53;;;;;;;16.60;40.98;101851.75;5094609;28;20039;-66
2022/05/04 09:15:33;;;;;;;15.00;7.40;;;;;;;16.54;40.96;101850.00;5094026;28;20024;-65
2022/05/04 09:17:59;;;;;;;11.73;7.47;;;;;;;16.42;40.45;101842.63;5094372;28;20471;-65
2022/05/04 09:20:45;;;;;;;13.57;7.53;;;;;;;16.37;40.83;101851.00;5093545;28;20071;-65
2022/05/04 09:23:16;;;;;;;12.73;7.05;;;;;;;16.44;41.06;101845.19;5094549;28;20028;-65
2022/05/04 09:25:41;;;;;;;18.73;8.03;;;;;;;16.40;40.12;101838.44;5094312;28;20079;-65
2022/05/04 09:28:14;;;;;;;15.93;8.00;;;;;;;16.48;40.66;101837.94;5093568;28;20063;-65
2022/05/04 09:30:48;;;;;;;14.45;7.78;;;;;;;16.61;40.77;101829.06;5094102;28;20028;-65
2022/05/04 09:33:27;;;;;;;12.90;8.18;;;;;;;16.68;40.88;101829.66;5094087;28;20387;-65
2022/05/04 09:35:54;;;;;;;18.75;8.65;;;;;;;16.68;40.62;101828.81;5093049;28;20475;-65
2022/05/04 09:46:45;;;;;;;12.88;8.07;;;;;;;16.87;40.75;101827.28;5094121;28;20043;-65
2022/05/04 09:49:28;;;;;;;15.02;8.40;;;;;;;16.94;40.64;101838.28;5093230;28;20020;-65
2022/05/04 09:51:54;;;;;;;13.75;8.25;;;;;;;16.97;40.18;101836.88;5093775;28;20031;-65
2022/05/04 09:54:22;;;;;;;13.95;8.65;;;;;;;16.95;40.08;101842.75;5093524;28;20027;-65
2022/05/04 09:56:56;;;;;;;15.85;8.00;;;;;;;17.04;40.05;101829.91;5093190;28;20024;-66
2022/05/04 09:59:31;;;;;;;13.85;8.52;;;;;;;17.09;40.61;101823.47;5093316;28;20383;-65
2022/05/04 10:02:07;;;;;;;17.20;8.70;;;;;;;17.09;39.34;101820.66;5093650;28;20056;-65
2022/05/04 10:04:33;;;;;;;13.32;8.00;;;;;;;17.08;39.27;101821.78;5092771;28;20028;-65
2022/05/04 10:07:00;;;;;;;13.88;8.20;;;;;;;17.08;39.40;101824.59;5093358;28;20047;-65
2022/05/04 10:09:26;;;;;;;14.55;8.27;;;;;;;17.12;39.87;101818.16;5092661;28;20748;-65
2022/05/04 10:11:57;;;;;;;14.13;7.78;;;;;;;17.14;39.16;101823.50;5093437;28;20024;-65
2022/05/04 10:14:24;;;;;;;14.95;8.05;;;;;;;17.09;39.23;101824.31;5093379;28;20028;-65
2022/05/04 10:16:57;;;;;;;12.85;8.15;;;;;;;17.05;39.35;101819.53;5092475;28;20028;-66
2022/05/04 10:19:29;;;;;;;12.23;8.60;;;;;;;17.16;39.10;101812.84;5093343;28;20040;-65
2022/05/04 10:21:58;;;;;;;13.37;8.43;;;;;;;17.20;38.93;101821.56;5093214;28;20459;-65
2022/05/04 10:24:27;;;;;;;13.13;7.20;;;;;;;17.23;39.54;101813.44;5092528;28;20016;-65
2022/05/04 10:27:01;;;;;;;13.18;7.25;;;;;;;17.32;39.07;101814.59;5093048;28;20764;-66
2022/05/04 10:32:28;;;;;;;10.45;7.53;;;;;;;17.46;38.55;101811.28;5092572;28;20101;-65
2022/05/04 10:35:31;;;;;;;12.30;7.07;;;;;;;17.53;38.56;101818.31;5092937;28;20024;-65
2022/05/04 10:37:59;;;;;;;12.45;7.53;;;;;;;17.54;37.86;101811.59;5092405;28;20024;-65
2022/05/04 10:40:27;;;;;;;14.38;8.15;;;;;;;17.48;37.64;101798.63;5092862;28;20024;-66
2022/05/04 10:42:55;;;;;;;11.45;7.07;;;;;;;17.67;38.25;101813.00;5092797;28;20111;-66
2022/05/04 10:45:23;;;;;;;13.50;6.97;;;;;;;17.63;37.05;101803.44;5092134;28;20028;-65
2022/05/04 10:47:48;;;;;;;12.88;6.65;;;;;;;17.72;36.57;101810.19;5092714;28;20032;-65
2022/05/04 10:50:17;;;;;;;10.48;6.80;;;;;;;17.71;37.00;101811.31;5092592;28;20036;-65
2022/05/04 10:52:47;;;;;;;14.43;7.30;;;;;;;17.74;37.19;101807.97;5091956;28;20093;-65
2022/05/04 10:55:12;;;;;;;10.27;7.22;;;;;;;17.81;37.58;101810.56;5092603;28;20099;-65
2022/05/04 10:57:41;;;;;;;15.05;8.98;;;;;;;17.78;37.39;101805.47;5092555;28;20103;-65
2022/05/04 11:00:19;;;;;;;13.18;7.80;;;;;;;17.82;37.76;101801.00;5091716;28;20126;-65
2022/05/04 11:02:48;;;;;;;12.95;8.27;;;;;;;17.82;38.04;101798.19;5092405;28;20047;-64
2022/05/04 11:05:16;;;;;;;17.67;7.80;;;;;;;17.93;38.33;101793.44;5091912;28;20027;-65
2022/05/04 11:07:45;;;;;;;12.57;7.85;;;;;;;18.01;38.05;101796.53;5091335;28;20043;-65
2022/05/04 11:10:12;;;;;;;12.23;8.02;;;;;;;17.95;36.50;101802.41;5092336;28;20020;-65
2022/05/04 11:12:38;;;;;;;12.52;8.43;;;;;;;17.95;36.45;101793.97;5091537;28;20020;-65
2022/05/04 11:15:04;;;;;;;11.27;7.93;;;;;;;18.00;37.74;101797.66;5091884;28;20043;-65
2022/05/04 11:17:33;;;;;;;14.65;8.40;;;;;;;17.98;37.15;101797.06;5092329;28;20035;-65
2022/05/04 11:19:58;;;;;;;14.10;7.03;;;;;;;18.09;37.10;101792.31;5091451;28;20024;-65
2022/05/04 11:22:23;;;;;;;14.57;7.60;;;;;;;18.13;37.31;101791.47;5092223;28;20047;-65
2022/05/04 11:24:49;;;;;;;15.70;7.65;;;;;;;18.11;37.14;101787.25;5092044;28;20055;-65
2022/05/04 11:27:16;;;;;;;13.77;8.30;;;;;;;18.22;37.46;101774.03;5091247;28;20040;-65
2022/05/04 11:29:42;;;;;;;14.15;8.23;;;;;;;18.21;37.84;101777.97;5091842;28;20039;-65
2022/05/04 11:32:19;;;;;;;11.73;7.25;;;;;;;18.29;37.13;101783.03;5091583;28;20032;-65
2022/05/04 11:34:44;;;;;;;14.98;8.32;;;;;;;18.35;36.90;101774.31;5089855;28;20024;-65
2022/05/04 11:37:14;;;;;;;13.13;7.60;;;;;;;18.43;37.50;101774.84;5091887;28;20024;-65
2022/05/04 11:39:40;;;;;;;12.88;7.57;;;;;;;18.38;36.35;101772.88;5091619;28;20036;-65
2022/05/04 11:42:09;;;;;;;11.00;7.97;;;;;;;18.34;36.85;101767.00;5090936;28;20028;-65
2022/05/04 11:44:36;;;;;;;13.48;8.93;;;;;;;18.36;36.64;101763.91;5091606;28;20035;-65
2022/05/04 11:47:03;;;;;;;14.40;8.13;;;;;;;18.36;37.02;101775.16;5091421;28;20475;-65
2022/05/04 11:49:34;;;;;;;11.50;8.55;;;;;;;18.38;37.22;101765.28;5091162;28;20084;-65
2022/05/04 11:52:00;;;;;;;13.65;8.30;;;;;;;18.49;36.72;101754.03;5091681;28;20373;-65